sensor_id;sensor_type;location;lat;lon;timestamp;P1;durP1;ratioP1;P2;durP2;ratioP2
32026;SDS011;18543;50.848;4.596;2022-12-20T00:01:22;5.25;;;3.72;;
32026;SDS011;18543;50.848;4.596;2022-12-20T00:03:52;4.60;;;3.50;;
32026;SDS011;18543;50.848;4.596;2022-12-20T00:06:20;6.75;;;3.90;;
32026;SDS011;18543;50.848;4.596;2022-12-20T00:08:52;5.28;;;3.75;;
32026;SDS011;18543;50.848;4.596;2022-12-20T00:11:21;6.05;;;3.92;;
32026;SDS011;18543;50.848;4.596;2022-12-20T00:13:48;6.45;;;3.63;;
32026;SDS011;18543;50.848;4.596;2022-12-20T00:16:19;4.90;;;3.57;;
32026;SDS011;18543;50.848;4.596;2022-12-20T00:18:52;5.80;;;3.33;;
32026;SDS011;18543;50.848;4.596;2022-12-20T00:21:21;5.60;;;3.65;;
32026;SDS011;18543;50.848;4.596;2022-12-20T00:23:52;5.40;;;3.35;;
32026;SDS011;18543;50.848;4.596;2022-12-20T00:26:21;6.32;;;3.70;;
32026;SDS011;18543;50.848;4.596;2022-12-20T00:28:51;5.72;;;3.50;;
32026;SDS011;18543;50.848;4.596;2022-12-20T00:31:18;5.78;;;3.40;;
32026;SDS011;18543;50.848;4.596;2022-12-20T00:33:47;4.13;;;3.50;;
32026;SDS011;18543;50.848;4.596;2022-12-20T00:36:15;5.53;;;3.50;;
32026;SDS011;18543;50.848;4.596;2022-12-20T00:38:47;4.28;;;3.08;;
32026;SDS011;18543;50.848;4.596;2022-12-20T00:41:17;5.13;;;3.45;;
32026;SDS011;18543;50.848;4.596;2022-12-20T00:43:46;5.90;;;3.25;;
32026;SDS011;18543;50.848;4.596;2022-12-20T00:46:13;5.47;;;3.50;;
32026;SDS011;18543;50.848;4.596;2022-12-20T00:48:41;4.88;;;3.55;;
32026;SDS011;18543;50.848;4.596;2022-12-20T00:51:10;4.43;;;3.33;;
32026;SDS011;18543;50.848;4.596;2022-12-20T00:53:38;6.00;;;3.10;;
32026;SDS011;18543;50.848;4.596;2022-12-20T00:56:06;3.88;;;3.15;;
32026;SDS011;18543;50.848;4.596;2022-12-20T00:58:37;9.98;;;3.30;;
32026;SDS011;18543;50.848;4.596;2022-12-20T01:01:06;4.18;;;3.35;;
32026;SDS011;18543;50.848;4.596;2022-12-20T01:03:45;4.80;;;3.53;;
32026;SDS011;18543;50.848;4.596;2022-12-20T01:06:12;4.35;;;3.45;;
32026;SDS011;18543;50.848;4.596;2022-12-20T01:08:39;5.88;;;3.20;;
32026;SDS011;18543;50.848;4.596;2022-12-20T01:11:14;4.63;;;3.38;;
32026;SDS011;18543;50.848;4.596;2022-12-20T01:13:50;3.97;;;2.92;;
32026;SDS011;18543;50.848;4.596;2022-12-20T01:16:20;5.68;;;3.35;;
32026;SDS011;18543;50.848;4.596;2022-12-20T01:18:52;4.43;;;3.05;;
32026;SDS011;18543;50.848;4.596;2022-12-20T01:21:20;5.20;;;3.15;;
32026;SDS011;18543;50.848;4.596;2022-12-20T01:23:48;4.68;;;3.00;;
32026;SDS011;18543;50.848;4.596;2022-12-20T01:26:16;3.80;;;2.88;;
32026;SDS011;18543;50.848;4.596;2022-12-20T01:28:45;3.40;;;2.90;;
32026;SDS011;18543;50.848;4.596;2022-12-20T01:31:14;5.80;;;3.08;;
32026;SDS011;18543;50.848;4.596;2022-12-20T01:33:42;3.15;;;2.60;;
32026;SDS011;18543;50.848;4.596;2022-12-20T01:38:39;4.13;;;3.00;;
32026;SDS011;18543;50.848;4.596;2022-12-20T01:41:06;3.33;;;3.00;;
32026;SDS011;18543;50.848;4.596;2022-12-20T01:46:32;4.30;;;2.70;;
32026;SDS011;18543;50.848;4.596;2022-12-20T01:49:20;4.22;;;2.90;;
32026;SDS011;18543;50.848;4.596;2022-12-20T01:51:58;3.35;;;2.60;;
32026;SDS011;18543;50.848;4.596;2022-12-20T01:54:31;3.83;;;2.72;;
32026;SDS011;18543;50.848;4.596;2022-12-20T01:57:03;3.38;;;2.58;;
32026;SDS011;18543;50.848;4.596;2022-12-20T01:59:34;4.15;;;2.83;;
32026;SDS011;18543;50.848;4.596;2022-12-20T02:02:05;3.00;;;2.67;;
32026;SDS011;18543;50.848;4.596;2022-12-20T02:04:35;3.10;;;2.58;;
32026;SDS011;18543;50.848;4.596;2022-12-20T02:07:02;4.03;;;2.45;;
32026;SDS011;18543;50.848;4.596;2022-12-20T02:09:30;4.20;;;2.63;;
32026;SDS011;18543;50.848;4.596;2022-12-20T02:14:38;3.22;;;2.33;;
32026;SDS011;18543;50.848;4.596;2022-12-20T02:17:35;4.70;;;2.50;;
32026;SDS011;18543;50.848;4.596;2022-12-20T02:26:00;3.13;;;2.60;;
32026;SDS011;18543;50.848;4.596;2022-12-20T02:31:10;3.50;;;2.60;;
32026;SDS011;18543;50.848;4.596;2022-12-20T02:33:40;5.97;;;2.50;;
32026;SDS011;18543;50.848;4.596;2022-12-20T02:36:15;3.40;;;2.25;;
32026;SDS011;18543;50.848;4.596;2022-12-20T02:38:44;5.82;;;2.50;;
32026;SDS011;18543;50.848;4.596;2022-12-20T02:41:15;2.90;;;2.25;;
32026;SDS011;18543;50.848;4.596;2022-12-20T02:43:57;4.55;;;2.35;;
32026;SDS011;18543;50.848;4.596;2022-12-20T02:46:45;4.13;;;2.45;;
32026;SDS011;18543;50.848;4.596;2022-12-20T02:49:15;3.17;;;2.17;;
32026;SDS011;18543;50.848;4.596;2022-12-20T02:51:45;3.88;;;2.80;;
32026;SDS011;18543;50.848;4.596;2022-12-20T02:54:14;3.58;;;2.25;;
32026;SDS011;18543;50.848;4.596;2022-12-20T02:56:49;2.40;;;2.20;;
32026;SDS011;18543;50.848;4.596;2022-12-20T02:59:26;3.05;;;2.40;;
32026;SDS011;18543;50.848;4.596;2022-12-20T03:01:57;3.38;;;2.30;;
32026;SDS011;18543;50.848;4.596;2022-12-20T03:04:26;2.58;;;1.92;;
32026;SDS011;18543;50.848;4.596;2022-12-20T03:06:59;3.75;;;2.22;;
32026;SDS011;18543;50.848;4.596;2022-12-20T03:09:34;3.35;;;2.42;;
32026;SDS011;18543;50.848;4.596;2022-12-20T03:12:06;2.40;;;1.88;;
32026;SDS011;18543;50.848;4.596;2022-12-20T03:14:35;3.85;;;2.35;;
32026;SDS011;18543;50.848;4.596;2022-12-20T03:17:01;2.53;;;2.15;;
32026;SDS011;18543;50.848;4.596;2022-12-20T03:19:31;2.15;;;1.95;;
32026;SDS011;18543;50.848;4.596;2022-12-20T03:21:58;2.70;;;2.00;;
32026;SDS011;18543;50.848;4.596;2022-12-20T03:24:24;3.08;;;2.10;;
32026;SDS011;18543;50.848;4.596;2022-12-20T03:26:51;2.78;;;2.17;;
32026;SDS011;18543;50.848;4.596;2022-12-20T03:29:19;2.80;;;2.00;;
32026;SDS011;18543;50.848;4.596;2022-12-20T03:31:45;2.30;;;2.10;;
32026;SDS011;18543;50.848;4.596;2022-12-20T03:34:12;2.28;;;1.85;;
32026;SDS011;18543;50.848;4.596;2022-12-20T03:36:39;2.83;;;2.17;;
32026;SDS011;18543;50.848;4.596;2022-12-20T03:39:06;4.10;;;2.00;;
32026;SDS011;18543;50.848;4.596;2022-12-20T03:41:32;3.42;;;2.00;;
32026;SDS011;18543;50.848;4.596;2022-12-20T03:43:59;3.33;;;2.00;;
32026;SDS011;18543;50.848;4.596;2022-12-20T03:46:26;2.75;;;2.00;;
32026;SDS011;18543;50.848;4.596;2022-12-20T03:48:53;2.95;;;2.13;;
32026;SDS011;18543;50.848;4.596;2022-12-20T03:51:20;4.45;;;2.00;;
32026;SDS011;18543;50.848;4.596;2022-12-20T03:53:47;2.83;;;2.00;;
32026;SDS011;18543;50.848;4.596;2022-12-20T03:56:13;2.60;;;2.05;;
32026;SDS011;18543;50.848;4.596;2022-12-20T03:58:41;2.58;;;1.90;;
32026;SDS011;18543;50.848;4.596;2022-12-20T04:03:48;4.00;;;2.00;;
32026;SDS011;18543;50.848;4.596;2022-12-20T04:06:16;2.33;;;2.00;;
32026;SDS011;18543;50.848;4.596;2022-12-20T04:08:44;3.55;;;2.00;;
32026;SDS011;18543;50.848;4.596;2022-12-20T04:11:11;2.20;;;2.00;;
32026;SDS011;18543;50.848;4.596;2022-12-20T04:13:42;3.00;;;2.10;;
32026;SDS011;18543;50.848;4.596;2022-12-20T04:16:10;2.35;;;1.65;;
32026;SDS011;18543;50.848;4.596;2022-12-20T04:18:38;2.45;;;1.83;;
32026;SDS011;18543;50.848;4.596;2022-12-20T04:21:05;3.00;;;1.98;;
32026;SDS011;18543;50.848;4.596;2022-12-20T04:23:33;2.63;;;2.05;;
32026;SDS011;18543;50.848;4.596;2022-12-20T04:26:01;2.25;;;1.70;;
32026;SDS011;18543;50.848;4.596;2022-12-20T04:28:29;3.20;;;1.90;;
32026;SDS011;18543;50.848;4.596;2022-12-20T04:30:56;2.50;;;1.80;;
32026;SDS011;18543;50.848;4.596;2022-12-20T04:33:24;2.70;;;1.90;;
32026;SDS011;18543;50.848;4.596;2022-12-20T04:35:52;1.73;;;1.52;;
32026;SDS011;18543;50.848;4.596;2022-12-20T04:38:20;3.00;;;1.98;;
32026;SDS011;18543;50.848;4.596;2022-12-20T04:40:50;3.08;;;1.77;;
32026;SDS011;18543;50.848;4.596;2022-12-20T04:43:19;3.88;;;1.88;;
32026;SDS011;18543;50.848;4.596;2022-12-20T04:45:47;2.55;;;1.88;;
32026;SDS011;18543;50.848;4.596;2022-12-20T04:48:15;2.58;;;1.77;;
32026;SDS011;18543;50.848;4.596;2022-12-20T04:51:02;2.58;;;1.90;;
32026;SDS011;18543;50.848;4.596;2022-12-20T04:53:29;2.72;;;1.70;;
32026;SDS011;18543;50.848;4.596;2022-12-20T04:58:51;2.13;;;1.80;;
32026;SDS011;18543;50.848;4.596;2022-12-20T05:01:19;1.92;;;1.70;;
32026;SDS011;18543;50.848;4.596;2022-12-20T05:03:49;2.67;;;1.90;;
32026;SDS011;18543;50.848;4.596;2022-12-20T05:06:16;3.15;;;1.98;;
32026;SDS011;18543;50.848;4.596;2022-12-20T05:08:43;2.28;;;1.60;;
32026;SDS011;18543;50.848;4.596;2022-12-20T05:11:10;2.67;;;1.90;;
32026;SDS011;18543;50.848;4.596;2022-12-20T05:13:38;2.55;;;1.50;;
32026;SDS011;18543;50.848;4.596;2022-12-20T05:16:05;2.30;;;1.77;;
32026;SDS011;18543;50.848;4.596;2022-12-20T05:18:32;2.38;;;1.70;;
32026;SDS011;18543;50.848;4.596;2022-12-20T05:21:00;1.83;;;1.65;;
32026;SDS011;18543;50.848;4.596;2022-12-20T05:26:33;1.50;;;1.33;;
32026;SDS011;18543;50.848;4.596;2022-12-20T05:29:03;2.92;;;1.65;;
32026;SDS011;18543;50.848;4.596;2022-12-20T05:31:32;1.70;;;1.60;;
32026;SDS011;18543;50.848;4.596;2022-12-20T05:34:00;2.63;;;1.58;;
32026;SDS011;18543;50.848;4.596;2022-12-20T05:36:27;2.28;;;1.70;;
32026;SDS011;18543;50.848;4.596;2022-12-20T05:38:54;1.85;;;1.58;;
32026;SDS011;18543;50.848;4.596;2022-12-20T05:41:29;2.70;;;1.60;;
32026;SDS011;18543;50.848;4.596;2022-12-20T05:43:56;2.63;;;1.50;;
32026;SDS011;18543;50.848;4.596;2022-12-20T05:46:23;2.35;;;1.73;;
32026;SDS011;18543;50.848;4.596;2022-12-20T05:48:51;1.80;;;1.60;;
32026;SDS011;18543;50.848;4.596;2022-12-20T05:51:17;2.17;;;1.60;;
32026;SDS011;18543;50.848;4.596;2022-12-20T05:53:44;2.85;;;1.77;;
32026;SDS011;18543;50.848;4.596;2022-12-20T05:56:11;4.05;;;1.90;;
32026;SDS011;18543;50.848;4.596;2022-12-20T05:58:38;4.28;;;1.90;;
32026;SDS011;18543;50.848;4.596;2022-12-20T06:01:06;4.10;;;1.70;;
32026;SDS011;18543;50.848;4.596;2022-12-20T06:03:33;4.88;;;1.83;;
32026;SDS011;18543;50.848;4.596;2022-12-20T06:08:33;2.67;;;1.80;;
32026;SDS011;18543;50.848;4.596;2022-12-20T06:11:00;2.78;;;1.63;;
32026;SDS011;18543;50.848;4.596;2022-12-20T06:13:30;2.67;;;1.98;;
32026;SDS011;18543;50.848;4.596;2022-12-20T06:15:56;2.83;;;1.42;;
32026;SDS011;18543;50.848;4.596;2022-12-20T06:18:23;2.80;;;1.70;;
32026;SDS011;18543;50.848;4.596;2022-12-20T06:20:50;4.68;;;1.85;;
32026;SDS011;18543;50.848;4.596;2022-12-20T06:23:18;4.32;;;1.60;;
32026;SDS011;18543;50.848;4.596;2022-12-20T06:25:45;3.50;;;1.50;;
32026;SDS011;18543;50.848;4.596;2022-12-20T06:28:13;5.10;;;2.00;;
32026;SDS011;18543;50.848;4.596;2022-12-20T06:30:53;4.70;;;1.67;;
32026;SDS011;18543;50.848;4.596;2022-12-20T06:33:21;4.85;;;1.80;;
32026;SDS011;18543;50.848;4.596;2022-12-20T06:35:48;3.40;;;1.73;;
32026;SDS011;18543;50.848;4.596;2022-12-20T06:38:16;4.38;;;2.00;;
32026;SDS011;18543;50.848;4.596;2022-12-20T06:40:44;3.70;;;1.70;;
32026;SDS011;18543;50.848;4.596;2022-12-20T06:43:11;2.45;;;1.55;;
32026;SDS011;18543;50.848;4.596;2022-12-20T06:45:38;4.50;;;1.40;;
32026;SDS011;18543;50.848;4.596;2022-12-20T06:48:07;6.10;;;1.73;;
32026;SDS011;18543;50.848;4.596;2022-12-20T06:50:36;4.55;;;1.65;;
32026;SDS011;18543;50.848;4.596;2022-12-20T06:53:03;3.65;;;1.60;;
32026;SDS011;18543;50.848;4.596;2022-12-20T06:55:30;4.78;;;1.80;;
32026;SDS011;18543;50.848;4.596;2022-12-20T06:57:58;7.77;;;1.70;;
32026;SDS011;18543;50.848;4.596;2022-12-20T07:00:25;6.93;;;1.60;;
32026;SDS011;18543;50.848;4.596;2022-12-20T07:02:52;4.03;;;1.30;;
32026;SDS011;18543;50.848;4.596;2022-12-20T07:05:22;7.55;;;1.65;;
32026;SDS011;18543;50.848;4.596;2022-12-20T07:08:09;5.43;;;1.30;;
32026;SDS011;18543;50.848;4.596;2022-12-20T07:10:36;5.53;;;1.83;;
32026;SDS011;18543;50.848;4.596;2022-12-20T07:13:03;6.28;;;1.98;;
32026;SDS011;18543;50.848;4.596;2022-12-20T07:15:30;15.68;;;2.40;;
32026;SDS011;18543;50.848;4.596;2022-12-20T07:17:57;4.07;;;1.88;;
32026;SDS011;18543;50.848;4.596;2022-12-20T07:20:25;9.87;;;1.83;;
32026;SDS011;18543;50.848;4.596;2022-12-20T07:22:51;4.15;;;1.60;;
32026;SDS011;18543;50.848;4.596;2022-12-20T07:25:18;8.02;;;1.88;;
32026;SDS011;18543;50.848;4.596;2022-12-20T07:27:48;16.67;;;2.30;;
32026;SDS011;18543;50.848;4.596;2022-12-20T07:30:15;8.93;;;1.90;;
32026;SDS011;18543;50.848;4.596;2022-12-20T07:32:43;5.50;;;1.70;;
32026;SDS011;18543;50.848;4.596;2022-12-20T07:35:11;8.50;;;1.85;;
32026;SDS011;18543;50.848;4.596;2022-12-20T07:37:39;6.70;;;1.77;;
32026;SDS011;18543;50.848;4.596;2022-12-20T07:40:07;3.90;;;1.60;;
32026;SDS011;18543;50.848;4.596;2022-12-20T07:42:34;5.35;;;1.75;;
32026;SDS011;18543;50.848;4.596;2022-12-20T07:45:06;12.07;;;2.20;;
32026;SDS011;18543;50.848;4.596;2022-12-20T07:47:33;4.45;;;1.80;;
32026;SDS011;18543;50.848;4.596;2022-12-20T07:50:01;5.47;;;1.80;;
32026;SDS011;18543;50.848;4.596;2022-12-20T07:52:28;6.65;;;2.00;;
32026;SDS011;18543;50.848;4.596;2022-12-20T07:55:00;5.50;;;1.70;;
32026;SDS011;18543;50.848;4.596;2022-12-20T07:57:31;11.98;;;2.20;;
32026;SDS011;18543;50.848;4.596;2022-12-20T08:00:08;12.05;;;2.30;;
32026;SDS011;18543;50.848;4.596;2022-12-20T08:05:07;9.93;;;2.28;;
32026;SDS011;18543;50.848;4.596;2022-12-20T08:10:04;5.05;;;2.10;;
32026;SDS011;18543;50.848;4.596;2022-12-20T08:12:34;9.63;;;1.88;;
32026;SDS011;18543;50.848;4.596;2022-12-20T08:15:01;5.85;;;1.90;;
32026;SDS011;18543;50.848;4.596;2022-12-20T08:17:28;7.03;;;1.90;;
32026;SDS011;18543;50.848;4.596;2022-12-20T08:19:55;8.18;;;1.70;;
32026;SDS011;18543;50.848;4.596;2022-12-20T08:22:22;4.80;;;1.83;;
32026;SDS011;18543;50.848;4.596;2022-12-20T08:24:50;5.93;;;1.67;;
32026;SDS011;18543;50.848;4.596;2022-12-20T08:27:17;6.18;;;1.73;;
32026;SDS011;18543;50.848;4.596;2022-12-20T08:29:43;3.67;;;1.70;;
32026;SDS011;18543;50.848;4.596;2022-12-20T08:32:11;8.10;;;2.07;;
32026;SDS011;18543;50.848;4.596;2022-12-20T08:34:39;6.15;;;1.67;;
32026;SDS011;18543;50.848;4.596;2022-12-20T08:37:06;5.20;;;1.75;;
32026;SDS011;18543;50.848;4.596;2022-12-20T08:39:40;7.82;;;1.83;;
32026;SDS011;18543;50.848;4.596;2022-12-20T08:42:07;6.03;;;1.47;;
32026;SDS011;18543;50.848;4.596;2022-12-20T08:44:34;6.13;;;1.42;;
32026;SDS011;18543;50.848;4.596;2022-12-20T08:47:01;5.32;;;1.50;;
32026;SDS011;18543;50.848;4.596;2022-12-20T08:49:28;6.75;;;1.83;;
32026;SDS011;18543;50.848;4.596;2022-12-20T08:51:55;7.38;;;1.80;;
32026;SDS011;18543;50.848;4.596;2022-12-20T08:54:22;3.95;;;1.48;;
32026;SDS011;18543;50.848;4.596;2022-12-20T08:56:49;6.22;;;1.73;;
32026;SDS011;18543;50.848;4.596;2022-12-20T08:59:16;6.22;;;1.58;;
32026;SDS011;18543;50.848;4.596;2022-12-20T09:01:42;7.53;;;1.70;;
32026;SDS011;18543;50.848;4.596;2022-12-20T09:04:10;4.90;;;1.70;;
32026;SDS011;18543;50.848;4.596;2022-12-20T09:06:37;7.27;;;1.87;;
32026;SDS011;18543;50.848;4.596;2022-12-20T09:09:06;5.22;;;1.90;;
32026;SDS011;18543;50.848;4.596;2022-12-20T09:11:33;5.68;;;1.88;;
32026;SDS011;18543;50.848;4.596;2022-12-20T09:14:00;6.97;;;1.50;;
32026;SDS011;18543;50.848;4.596;2022-12-20T09:16:29;6.27;;;1.63;;
32026;SDS011;18543;50.848;4.596;2022-12-20T09:19:00;6.78;;;2.20;;
32026;SDS011;18543;50.848;4.596;2022-12-20T09:21:31;4.57;;;1.80;;
32026;SDS011;18543;50.848;4.596;2022-12-20T09:26:27;8.45;;;1.92;;
32026;SDS011;18543;50.848;4.596;2022-12-20T09:28:54;6.80;;;1.70;;
32026;SDS011;18543;50.848;4.596;2022-12-20T09:31:23;7.00;;;1.70;;
32026;SDS011;18543;50.848;4.596;2022-12-20T09:33:53;4.35;;;1.77;;
32026;SDS011;18543;50.848;4.596;2022-12-20T09:36:24;5.78;;;1.60;;
32026;SDS011;18543;50.848;4.596;2022-12-20T09:38:52;3.88;;;1.40;;
32026;SDS011;18543;50.848;4.596;2022-12-20T09:41:39;3.47;;;1.55;;
32026;SDS011;18543;50.848;4.596;2022-12-20T09:46:54;7.05;;;1.60;;
32026;SDS011;18543;50.848;4.596;2022-12-20T09:49:35;3.65;;;1.58;;
32026;SDS011;18543;50.848;4.596;2022-12-20T09:52:11;5.07;;;1.60;;
32026;SDS011;18543;50.848;4.596;2022-12-20T09:59:50;5.15;;;1.55;;
32026;SDS011;18543;50.848;4.596;2022-12-20T10:02:21;5.25;;;1.58;;
32026;SDS011;18543;50.848;4.596;2022-12-20T10:08:00;5.07;;;1.55;;
32026;SDS011;18543;50.848;4.596;2022-12-20T10:15:56;3.85;;;1.40;;
32026;SDS011;18543;50.848;4.596;2022-12-20T10:26:31;4.50;;;1.60;;
32026;SDS011;18543;50.848;4.596;2022-12-20T10:28:58;8.23;;;1.75;;
32026;SDS011;18543;50.848;4.596;2022-12-20T10:31:25;5.82;;;2.00;;
32026;SDS011;18543;50.848;4.596;2022-12-20T10:33:53;4.88;;;1.52;;
32026;SDS011;18543;50.848;4.596;2022-12-20T10:38:49;4.38;;;1.50;;
32026;SDS011;18543;50.848;4.596;2022-12-20T10:41:18;5.38;;;1.73;;
32026;SDS011;18543;50.848;4.596;2022-12-20T10:43:51;4.30;;;1.50;;
32026;SDS011;18543;50.848;4.596;2022-12-20T10:46:21;3.38;;;1.50;;
32026;SDS011;18543;50.848;4.596;2022-12-20T10:48:49;4.47;;;1.30;;
32026;SDS011;18543;50.848;4.596;2022-12-20T10:51:18;4.10;;;1.60;;
32026;SDS011;18543;50.848;4.596;2022-12-20T10:53:55;5.80;;;1.58;;
32026;SDS011;18543;50.848;4.596;2022-12-20T10:56:26;2.55;;;1.40;;
32026;SDS011;18543;50.848;4.596;2022-12-20T10:59:01;2.83;;;1.15;;
32026;SDS011;18543;50.848;4.596;2022-12-20T11:01:42;5.03;;;1.50;;
32026;SDS011;18543;50.848;4.596;2022-12-20T11:06:58;3.60;;;1.52;;
32026;SDS011;18543;50.848;4.596;2022-12-20T11:09:31;2.30;;;1.42;;
32026;SDS011;18543;50.848;4.596;2022-12-20T11:14:34;5.65;;;1.55;;
32026;SDS011;18543;50.848;4.596;2022-12-20T11:20:24;2.97;;;1.25;;
32026;SDS011;18543;50.848;4.596;2022-12-20T11:37:06;3.83;;;1.50;;
32026;SDS011;18543;50.848;4.596;2022-12-20T11:39:40;2.22;;;1.40;;
32026;SDS011;18543;50.848;4.596;2022-12-20T11:53:44;3.40;;;1.48;;
32026;SDS011;18543;50.848;4.596;2022-12-20T11:56:40;2.95;;;1.02;;
32026;SDS011;18543;50.848;4.596;2022-12-20T12:00:12;3.75;;;1.42;;
32026;SDS011;18543;50.848;4.596;2022-12-20T12:02:42;2.97;;;1.30;;
32026;SDS011;18543;50.848;4.596;2022-12-20T12:07:51;4.00;;;1.30;;
32026;SDS011;18543;50.848;4.596;2022-12-20T12:10:24;1.88;;;1.05;;
32026;SDS011;18543;50.848;4.596;2022-12-20T12:18:27;2.13;;;1.10;;
32026;SDS011;18543;50.848;4.596;2022-12-20T12:26:23;3.17;;;1.35;;
32026;SDS011;18543;50.848;4.596;2022-12-20T12:28:55;4.57;;;1.20;;
32026;SDS011;18543;50.848;4.596;2022-12-20T12:45:42;2.85;;;1.40;;
32026;SDS011;18543;50.848;4.596;2022-12-20T12:50:51;1.00;;;0.90;;
32026;SDS011;18543;50.848;4.596;2022-12-20T12:53:21;1.77;;;1.15;;
32026;SDS011;18543;50.848;4.596;2022-12-20T12:59:19;3.75;;;1.38;;
32026;SDS011;18543;50.848;4.596;2022-12-20T13:09:59;3.38;;;1.30;;
32026;SDS011;18543;50.848;4.596;2022-12-20T13:17:51;3.70;;;1.42;;
32026;SDS011;18543;50.848;4.596;2022-12-20T13:20:28;1.45;;;1.00;;
32026;SDS011;18543;50.848;4.596;2022-12-20T13:25:38;2.40;;;1.10;;
32026;SDS011;18543;50.848;4.596;2022-12-20T13:33:45;8.23;;;1.70;;
32026;SDS011;18543;50.848;4.596;2022-12-20T13:38:58;8.40;;;1.75;;
32026;SDS011;18543;50.848;4.596;2022-12-20T13:41:47;6.53;;;1.45;;
32026;SDS011;18543;50.848;4.596;2022-12-20T13:44:35;11.90;;;1.95;;
32026;SDS011;18543;50.848;4.596;2022-12-20T13:47:11;6.93;;;1.77;;
32026;SDS011;18543;50.848;4.596;2022-12-20T13:49:58;4.75;;;1.67;;
32026;SDS011;18543;50.848;4.596;2022-12-20T13:52:30;3.85;;;1.40;;
32026;SDS011;18543;50.848;4.596;2022-12-20T13:54:59;12.40;;;1.88;;
32026;SDS011;18543;50.848;4.596;2022-12-20T13:57:43;3.20;;;1.40;;
32026;SDS011;18543;50.848;4.596;2022-12-20T14:02:43;4.20;;;1.50;;
32026;SDS011;18543;50.848;4.596;2022-12-20T14:05:15;8.07;;;1.55;;
32026;SDS011;18543;50.848;4.596;2022-12-20T14:07:46;6.88;;;1.75;;
32026;SDS011;18543;50.848;4.596;2022-12-20T14:10:22;4.88;;;1.50;;
32026;SDS011;18543;50.848;4.596;2022-12-20T14:12:51;5.70;;;1.92;;
32026;SDS011;18543;50.848;4.596;2022-12-20T14:15:23;4.97;;;1.67;;
32026;SDS011;18543;50.848;4.596;2022-12-20T14:17:50;7.22;;;1.80;;
32026;SDS011;18543;50.848;4.596;2022-12-20T14:20:19;7.30;;;1.80;;
32026;SDS011;18543;50.848;4.596;2022-12-20T14:23:13;7.03;;;1.95;;
32026;SDS011;18543;50.848;4.596;2022-12-20T14:28:28;6.15;;;1.80;;
32026;SDS011;18543;50.848;4.596;2022-12-20T14:30:56;6.90;;;2.15;;
32026;SDS011;18543;50.848;4.596;2022-12-20T14:33:28;11.90;;;1.95;;
32026;SDS011;18543;50.848;4.596;2022-12-20T14:36:17;6.72;;;1.70;;
32026;SDS011;18543;50.848;4.596;2022-12-20T14:38:46;10.57;;;2.33;;
32026;SDS011;18543;50.848;4.596;2022-12-20T14:41:31;8.73;;;1.92;;
32026;SDS011;18543;50.848;4.596;2022-12-20T14:46:33;8.52;;;2.30;;
32026;SDS011;18543;50.848;4.596;2022-12-20T14:49:13;10.38;;;1.92;;
32026;SDS011;18543;50.848;4.596;2022-12-20T14:51:43;12.02;;;2.15;;
32026;SDS011;18543;50.848;4.596;2022-12-20T14:54:17;11.25;;;2.72;;
32026;SDS011;18543;50.848;4.596;2022-12-20T14:57:19;6.93;;;2.10;;
32026;SDS011;18543;50.848;4.596;2022-12-20T15:03:10;8.50;;;2.03;;
32026;SDS011;18543;50.848;4.596;2022-12-20T15:05:45;13.30;;;2.67;;
32026;SDS011;18543;50.848;4.596;2022-12-20T15:13:36;12.88;;;2.33;;
32026;SDS011;18543;50.848;4.596;2022-12-20T15:16:15;13.32;;;2.65;;
32026;SDS011;18543;50.848;4.596;2022-12-20T15:18:46;10.93;;;2.40;;
32026;SDS011;18543;50.848;4.596;2022-12-20T15:21:14;10.68;;;2.40;;
32026;SDS011;18543;50.848;4.596;2022-12-20T15:23:46;17.75;;;2.90;;
32026;SDS011;18543;50.848;4.596;2022-12-20T15:26:19;8.23;;;2.35;;
32026;SDS011;18543;50.848;4.596;2022-12-20T15:28:48;19.45;;;2.63;;
32026;SDS011;18543;50.848;4.596;2022-12-20T15:31:16;12.10;;;2.73;;
32026;SDS011;18543;50.848;4.596;2022-12-20T15:33:46;9.90;;;2.45;;
32026;SDS011;18543;50.848;4.596;2022-12-20T15:36:16;13.65;;;2.80;;
32026;SDS011;18543;50.848;4.596;2022-12-20T15:38:45;11.43;;;2.40;;
32026;SDS011;18543;50.848;4.596;2022-12-20T15:41:32;8.55;;;2.38;;
32026;SDS011;18543;50.848;4.596;2022-12-20T15:44:02;9.35;;;2.17;;
32026;SDS011;18543;50.848;4.596;2022-12-20T15:46:31;12.38;;;2.75;;
32026;SDS011;18543;50.848;4.596;2022-12-20T15:48:58;14.10;;;2.70;;
32026;SDS011;18543;50.848;4.596;2022-12-20T15:51:26;7.83;;;2.20;;
32026;SDS011;18543;50.848;4.596;2022-12-20T15:53:59;10.60;;;2.40;;
32026;SDS011;18543;50.848;4.596;2022-12-20T15:56:27;11.23;;;2.35;;
32026;SDS011;18543;50.848;4.596;2022-12-20T15:58:54;9.55;;;2.55;;
32026;SDS011;18543;50.848;4.596;2022-12-20T16:01:30;10.23;;;2.30;;
32026;SDS011;18543;50.848;4.596;2022-12-20T16:04:09;8.50;;;2.20;;
32026;SDS011;18543;50.848;4.596;2022-12-20T16:06:42;8.23;;;2.17;;
32026;SDS011;18543;50.848;4.596;2022-12-20T16:09:09;7.60;;;2.47;;
32026;SDS011;18543;50.848;4.596;2022-12-20T16:11:37;9.70;;;2.10;;
32026;SDS011;18543;50.848;4.596;2022-12-20T16:14:04;8.05;;;2.00;;
32026;SDS011;18543;50.848;4.596;2022-12-20T16:16:32;5.63;;;1.88;;
32026;SDS011;18543;50.848;4.596;2022-12-20T16:19:02;7.82;;;2.10;;
32026;SDS011;18543;50.848;4.596;2022-12-20T16:21:33;9.30;;;1.95;;
32026;SDS011;18543;50.848;4.596;2022-12-20T16:24:02;7.85;;;1.77;;
32026;SDS011;18543;50.848;4.596;2022-12-20T16:26:29;7.32;;;2.05;;
32026;SDS011;18543;50.848;4.596;2022-12-20T16:28:56;7.40;;;2.42;;
32026;SDS011;18543;50.848;4.596;2022-12-20T16:31:24;11.30;;;2.40;;
32026;SDS011;18543;50.848;4.596;2022-12-20T16:33:56;9.75;;;2.50;;
32026;SDS011;18543;50.848;4.596;2022-12-20T16:36:25;27.10;;;2.90;;
32026;SDS011;18543;50.848;4.596;2022-12-20T16:38:52;10.68;;;2.10;;
32026;SDS011;18543;50.848;4.596;2022-12-20T16:41:23;5.40;;;2.08;;
32026;SDS011;18543;50.848;4.596;2022-12-20T16:43:52;9.27;;;2.20;;
32026;SDS011;18543;50.848;4.596;2022-12-20T16:46:21;5.45;;;2.47;;
32026;SDS011;18543;50.848;4.596;2022-12-20T16:48:52;6.03;;;2.08;;
32026;SDS011;18543;50.848;4.596;2022-12-20T16:51:27;4.95;;;1.90;;
32026;SDS011;18543;50.848;4.596;2022-12-20T16:54:02;7.32;;;2.30;;
32026;SDS011;18543;50.848;4.596;2022-12-20T16:56:47;5.32;;;1.80;;
32026;SDS011;18543;50.848;4.596;2022-12-20T16:59:22;6.85;;;2.17;;
32026;SDS011;18543;50.848;4.596;2022-12-20T17:01:51;8.00;;;2.30;;
32026;SDS011;18543;50.848;4.596;2022-12-20T17:04:21;6.90;;;2.10;;
32026;SDS011;18543;50.848;4.596;2022-12-20T17:06:48;6.68;;;1.88;;
32026;SDS011;18543;50.848;4.596;2022-12-20T17:09:16;7.38;;;2.00;;
32026;SDS011;18543;50.848;4.596;2022-12-20T17:11:43;4.13;;;1.65;;
32026;SDS011;18543;50.848;4.596;2022-12-20T17:14:11;4.32;;;1.60;;
32026;SDS011;18543;50.848;4.596;2022-12-20T17:16:39;3.78;;;1.52;;
32026;SDS011;18543;50.848;4.596;2022-12-20T17:19:07;4.97;;;1.70;;
32026;SDS011;18543;50.848;4.596;2022-12-20T17:21:36;8.23;;;1.90;;
32026;SDS011;18543;50.848;4.596;2022-12-20T17:24:31;6.95;;;1.90;;
32026;SDS011;18543;50.848;4.596;2022-12-20T17:26:58;4.60;;;1.63;;
32026;SDS011;18543;50.848;4.596;2022-12-20T17:29:28;9.20;;;2.30;;
32026;SDS011;18543;50.848;4.596;2022-12-20T17:31:55;8.35;;;2.05;;
32026;SDS011;18543;50.848;4.596;2022-12-20T17:34:23;6.55;;;1.80;;
32026;SDS011;18543;50.848;4.596;2022-12-20T17:36:52;5.72;;;2.03;;
32026;SDS011;18543;50.848;4.596;2022-12-20T17:39:21;6.45;;;1.80;;
32026;SDS011;18543;50.848;4.596;2022-12-20T17:41:49;8.82;;;1.60;;
32026;SDS011;18543;50.848;4.596;2022-12-20T17:44:20;7.32;;;2.10;;
32026;SDS011;18543;50.848;4.596;2022-12-20T17:46:51;9.63;;;1.92;;
32026;SDS011;18543;50.848;4.596;2022-12-20T17:49:20;3.47;;;1.63;;
32026;SDS011;18543;50.848;4.596;2022-12-20T17:54:17;8.95;;;1.90;;
32026;SDS011;18543;50.848;4.596;2022-12-20T17:56:46;5.15;;;1.88;;
32026;SDS011;18543;50.848;4.596;2022-12-20T18:01:42;5.03;;;1.73;;